sensor_id;sensor_type;location;lat;lon;timestamp;pressure;altitude;pressure_sealevel;temperature;humidity
79415;BME280;68864;44.972;19.612;2023-11-22T00:00:21;100258.41;;;9.29;95.53
79415;BME280;68864;44.972;19.612;2023-11-22T00:02:48;100257.25;;;9.30;95.09
79415;BME280;68864;44.972;19.612;2023-11-22T00:05:16;100258.84;;;9.31;95.25
79415;BME280;68864;44.972;19.612;2023-11-22T00:07:43;100257.25;;;9.30;95.16
79415;BME280;68864;44.972;19.612;2023-11-22T00:10:10;100262.06;;;9.33;95.26
79415;BME280;68864;44.972;19.612;2023-11-22T00:12:36;100257.97;;;9.27;94.80
79415;BME280;68864;44.972;19.612;2023-11-22T00:15:04;100258.84;;;9.31;95.32
79415;BME280;68864;44.972;19.612;2023-11-22T00:17:32;100272.84;;;9.35;95.68
79415;BME280;68864;44.972;19.612;2023-11-22T00:19:59;100276.44;;;9.35;95.39
79415;BME280;68864;44.972;19.612;2023-11-22T00:22:32;100267.19;;;9.31;95.44
79415;BME280;68864;44.972;19.612;2023-11-22T00:24:58;100278.75;;;9.33;94.99
79415;BME280;68864;44.972;19.612;2023-11-22T00:27:26;100281.63;;;9.37;94.99
79415;BME280;68864;44.972;19.612;2023-11-22T00:29:53;100282.00;;;9.35;94.78
79415;BME280;68864;44.972;19.612;2023-11-22T00:32:20;100286.66;;;9.31;94.85
79415;BME280;68864;44.972;19.612;2023-11-22T00:34:47;100293.19;;;9.39;95.05
79415;BME280;68864;44.972;19.612;2023-11-22T00:37:14;100295.97;;;9.39;94.84
79415;BME280;68864;44.972;19.612;2023-11-22T00:39:42;100309.53;;;9.40;94.96
79415;BME280;68864;44.972;19.612;2023-11-22T00:42:09;100290.34;;;9.35;94.69
79415;BME280;68864;44.972;19.612;2023-11-22T00:44:36;100312.31;;;9.40;94.94
79415;BME280;68864;44.972;19.612;2023-11-22T00:47:03;100319.38;;;9.38;95.25
79415;BME280;68864;44.972;19.612;2023-11-22T00:49:30;100315.44;;;9.39;95.00
79415;BME280;68864;44.972;19.612;2023-11-22T00:51:57;100301.38;;;9.32;95.08
79415;BME280;68864;44.972;19.612;2023-11-22T00:54:24;100305.41;;;9.34;95.76
79415;BME280;68864;44.972;19.612;2023-11-22T00:56:53;100302.69;;;9.38;95.59
79415;BME280;68864;44.972;19.612;2023-11-22T00:59:20;100301.91;;;9.37;95.98
79415;BME280;68864;44.972;19.612;2023-11-22T01:01:47;100303.16;;;9.40;95.40
79415;BME280;68864;44.972;19.612;2023-11-22T01:04:14;100299.56;;;9.39;95.37
79415;BME280;68864;44.972;19.612;2023-11-22T01:06:40;100289.88;;;9.33;95.06
79415;BME280;68864;44.972;19.612;2023-11-22T01:09:07;100304.25;;;9.35;95.69
79415;BME280;68864;44.972;19.612;2023-11-22T01:11:35;100302.28;;;9.36;95.67
79415;BME280;68864;44.972;19.612;2023-11-22T01:14:04;100306.56;;;9.33;95.54
79415;BME280;68864;44.972;19.612;2023-11-22T01:16:31;100311.84;;;9.38;95.16
79415;BME280;68864;44.972;19.612;2023-11-22T01:18:58;100290.69;;;9.34;95.25
79415;BME280;68864;44.972;19.612;2023-11-22T01:21:26;100295.09;;;9.35;95.63
79415;BME280;68864;44.972;19.612;2023-11-22T01:23:53;100307.84;;;9.36;95.68
79415;BME280;68864;44.972;19.612;2023-11-22T01:26:20;100304.94;;;9.32;95.52
79415;BME280;68864;44.972;19.612;2023-11-22T01:28:47;100300.94;;;9.30;95.91
79415;BME280;68864;44.972;19.612;2023-11-22T01:31:15;100302.63;;;9.34;95.97
79415;BME280;68864;44.972;19.612;2023-11-22T01:33:46;100308.53;;;9.33;95.56
79415;BME280;68864;44.972;19.612;2023-11-22T01:36:13;100298.88;;;9.27;96.01
79415;BME280;68864;44.972;19.612;2023-11-22T01:38:40;100307.31;;;9.30;96.14
79415;BME280;68864;44.972;19.612;2023-11-22T01:41:09;100296.44;;;9.25;95.55
79415;BME280;68864;44.972;19.612;2023-11-22T01:43:38;100307.31;;;9.30;95.29
79415;BME280;68864;44.972;19.612;2023-11-22T01:46:05;100310.16;;;9.34;95.66
79415;BME280;68864;44.972;19.612;2023-11-22T01:48:35;100302.16;;;9.32;95.72
79415;BME280;68864;44.972;19.612;2023-11-22T01:51:03;100300.94;;;9.30;95.42
79415;BME280;68864;44.972;19.612;2023-11-22T01:53:29;100299.84;;;9.18;96.44
79415;BME280;68864;44.972;19.612;2023-11-22T01:55:57;100299.16;;;9.22;96.03
79415;BME280;68864;44.972;19.612;2023-11-22T01:58:24;100296.81;;;9.24;95.46
79415;BME280;68864;44.972;19.612;2023-11-22T02:00:51;100300.84;;;9.26;95.90
79415;BME280;68864;44.972;19.612;2023-11-22T02:03:18;100307.56;;;9.25;96.00
79415;BME280;68864;44.972;19.612;2023-11-22T02:05:47;100309.53;;;9.25;95.65
79415;BME280;68864;44.972;19.612;2023-11-22T02:08:14;100305.53;;;9.22;95.60
79415;BME280;68864;44.972;19.612;2023-11-22T02:10:44;100302.47;;;9.27;95.77
79415;BME280;68864;44.972;19.612;2023-11-22T02:13:14;100304.88;;;9.29;95.49
79415;BME280;68864;44.972;19.612;2023-11-22T02:15:41;100300.50;;;9.28;95.47
79415;BME280;68864;44.972;19.612;2023-11-22T02:18:08;100298.34;;;9.21;95.61
79415;BME280;68864;44.972;19.612;2023-11-22T02:20:35;100305.69;;;9.29;95.87
79415;BME280;68864;44.972;19.612;2023-11-22T02:23:07;100301.38;;;9.32;95.43
79415;BME280;68864;44.972;19.612;2023-11-22T02:25:35;100296.97;;;9.31;95.67
79415;BME280;68864;44.972;19.612;2023-11-22T02:28:02;100304.06;;;9.28;95.77
79415;BME280;68864;44.972;19.612;2023-11-22T02:30:29;100310.81;;;9.27;95.94
79415;BME280;68864;44.972;19.612;2023-11-22T02:32:55;100295.91;;;9.20;95.93
79415;BME280;68864;44.972;19.612;2023-11-22T02:35:22;100307.50;;;9.22;95.98
79415;BME280;68864;44.972;19.612;2023-11-22T02:37:49;100311.09;;;9.22;96.18
79415;BME280;68864;44.972;19.612;2023-11-22T02:40:18;100295.84;;;9.16;96.13
79415;BME280;68864;44.972;19.612;2023-11-22T02:42:46;100313.50;;;9.24;96.18
79415;BME280;68864;44.972;19.612;2023-11-22T02:45:13;100308.66;;;9.21;96.53
79415;BME280;68864;44.972;19.612;2023-11-22T02:47:40;100316.38;;;9.27;95.99
79415;BME280;68864;44.972;19.612;2023-11-22T02:50:11;100313.41;;;9.20;95.82
79415;BME280;68864;44.972;19.612;2023-11-22T02:52:38;100323.63;;;9.32;95.66
79415;BME280;68864;44.972;19.612;2023-11-22T02:55:06;100322.09;;;9.34;95.55
79415;BME280;68864;44.972;19.612;2023-11-22T02:57:36;100328.53;;;9.38;95.95
79415;BME280;68864;44.972;19.612;2023-11-22T03:00:04;100316.88;;;9.33;95.61
79415;BME280;68864;44.972;19.612;2023-11-22T03:02:31;100325.69;;;9.35;95.84
79415;BME280;68864;44.972;19.612;2023-11-22T03:04:58;100321.56;;;9.29;96.58
79415;BME280;68864;44.972;19.612;2023-11-22T03:07:25;100324.06;;;9.34;96.22
79415;BME280;68864;44.972;19.612;2023-11-22T03:09:52;100331.97;;;9.32;96.05
79415;BME280;68864;44.972;19.612;2023-11-22T03:12:19;100324.41;;;9.32;96.38
79415;BME280;68864;44.972;19.612;2023-11-22T03:14:47;100337.50;;;9.32;96.39
79415;BME280;68864;44.972;19.612;2023-11-22T03:17:14;100338.31;;;9.32;96.48
79415;BME280;68864;44.972;19.612;2023-11-22T03:19:41;100339.50;;;9.31;96.59
79415;BME280;68864;44.972;19.612;2023-11-22T03:22:10;100341.47;;;9.31;96.53
79415;BME280;68864;44.972;19.612;2023-11-22T03:24:38;100342.19;;;9.28;96.06
79415;BME280;68864;44.972;19.612;2023-11-22T03:27:04;100350.91;;;9.26;96.92
79415;BME280;68864;44.972;19.612;2023-11-22T03:29:32;100346.94;;;9.27;96.30
79415;BME280;68864;44.972;19.612;2023-11-22T03:32:01;100346.94;;;9.27;96.56
79415;BME280;68864;44.972;19.612;2023-11-22T03:34:28;100350.44;;;9.24;97.09
79415;BME280;68864;44.972;19.612;2023-11-22T03:36:55;100351.25;;;9.25;97.14
79415;BME280;68864;44.972;19.612;2023-11-22T03:39:21;100346.06;;;9.23;97.16
79415;BME280;68864;44.972;19.612;2023-11-22T03:41:49;100355.94;;;9.21;96.73
79415;BME280;68864;44.972;19.612;2023-11-22T03:44:16;100359.97;;;9.23;96.68
79415;BME280;68864;44.972;19.612;2023-11-22T03:46:43;100354.66;;;9.18;97.14
79415;BME280;68864;44.972;19.612;2023-11-22T03:49:11;100363.81;;;9.18;96.53
79415;BME280;68864;44.972;19.612;2023-11-22T03:51:41;100365.53;;;9.23;96.61
79415;BME280;68864;44.972;19.612;2023-11-22T03:54:08;100353.06;;;9.17;96.71
79415;BME280;68864;44.972;19.612;2023-11-22T03:56:38;100362.66;;;9.20;96.67
79415;BME280;68864;44.972;19.612;2023-11-22T03:59:05;100364.19;;;9.17;96.74
79415;BME280;68864;44.972;19.612;2023-11-22T04:01:31;100366.59;;;9.18;96.41
79415;BME280;68864;44.972;19.612;2023-11-22T04:03:58;100369.75;;;9.17;96.53
79415;BME280;68864;44.972;19.612;2023-11-22T04:06:26;100365.25;;;9.12;96.05
79415;BME280;68864;44.972;19.612;2023-11-22T04:08:53;100378.88;;;9.17;96.04
79415;BME280;68864;44.972;19.612;2023-11-22T04:11:20;100375.31;;;9.17;96.45
79415;BME280;68864;44.972;19.612;2023-11-22T04:13:48;100384.19;;;9.23;95.97
79415;BME280;68864;44.972;19.612;2023-11-22T04:16:14;100375.75;;;9.19;95.93
79415;BME280;68864;44.972;19.612;2023-11-22T04:18:43;100377.72;;;9.18;95.96
79415;BME280;68864;44.972;19.612;2023-11-22T04:21:10;100378.44;;;9.15;95.85
79415;BME280;68864;44.972;19.612;2023-11-22T04:23:38;100368.66;;;9.06;96.28
79415;BME280;68864;44.972;19.612;2023-11-22T04:26:05;100383.19;;;9.15;96.05
79415;BME280;68864;44.972;19.612;2023-11-22T04:28:32;100376.56;;;9.04;97.29
79415;BME280;68864;44.972;19.612;2023-11-22T04:30:59;100379.59;;;8.99;97.39
79415;BME280;68864;44.972;19.612;2023-11-22T04:33:25;100383.28;;;9.03;96.78
79415;BME280;68864;44.972;19.612;2023-11-22T04:35:54;100385.97;;;9.15;95.54
79415;BME280;68864;44.972;19.612;2023-11-22T04:38:20;100375.75;;;9.19;95.75
79415;BME280;68864;44.972;19.612;2023-11-22T04:40:49;100386.97;;;9.23;95.31
79415;BME280;68864;44.972;19.612;2023-11-22T04:43:15;100388.94;;;9.22;95.26
79415;BME280;68864;44.972;19.612;2023-11-22T04:45:42;100387.59;;;9.16;94.81
79415;BME280;68864;44.972;19.612;2023-11-22T04:48:09;100404.53;;;9.27;94.79
79415;BME280;68864;44.972;19.612;2023-11-22T04:50:36;100410.22;;;9.30;94.85
79415;BME280;68864;44.972;19.612;2023-11-22T04:53:03;100418.28;;;9.35;94.44
79415;BME280;68864;44.972;19.612;2023-11-22T04:55:29;100417.53;;;9.38;93.73
79415;BME280;68864;44.972;19.612;2023-11-22T04:57:58;100411.56;;;9.36;93.60
79415;BME280;68864;44.972;19.612;2023-11-22T05:00:24;100422.41;;;9.41;93.42
79415;BME280;68864;44.972;19.612;2023-11-22T05:02:51;100418.00;;;9.40;93.51
79415;BME280;68864;44.972;19.612;2023-11-22T05:05:19;100416.38;;;9.39;93.35
79415;BME280;68864;44.972;19.612;2023-11-22T05:07:46;100423.09;;;9.38;93.32
79415;BME280;68864;44.972;19.612;2023-11-22T05:10:13;100429.06;;;9.37;92.97
79415;BME280;68864;44.972;19.612;2023-11-22T05:12:42;100427.50;;;9.39;93.35
79415;BME280;68864;44.972;19.612;2023-11-22T05:15:11;100417.75;;;9.30;93.00
79415;BME280;68864;44.972;19.612;2023-11-22T05:17:39;100429.75;;;9.34;93.33
79415;BME280;68864;44.972;19.612;2023-11-22T05:20:07;100425.72;;;9.31;93.69
79415;BME280;68864;44.972;19.612;2023-11-22T05:22:35;100435.25;;;9.30;93.17
79415;BME280;68864;44.972;19.612;2023-11-22T05:25:02;100427.13;;;9.25;93.20
79415;BME280;68864;44.972;19.612;2023-11-22T05:27:29;100431.91;;;9.25;93.14
79415;BME280;68864;44.972;19.612;2023-11-22T05:29:58;100436.66;;;9.24;92.82
79415;BME280;68864;44.972;19.612;2023-11-22T05:32:27;100435.06;;;9.23;92.59
79415;BME280;68864;44.972;19.612;2023-11-22T05:34:54;100436.91;;;9.19;93.09
79415;BME280;68864;44.972;19.612;2023-11-22T05:37:21;100444.84;;;9.17;92.98
79415;BME280;68864;44.972;19.612;2023-11-22T05:39:48;100452.97;;;9.10;92.89
79415;BME280;68864;44.972;19.612;2023-11-22T05:42:14;100459.59;;;9.05;93.19
79415;BME280;68864;44.972;19.612;2023-11-22T05:44:41;100461.13;;;9.03;92.98
79415;BME280;68864;44.972;19.612;2023-11-22T05:47:08;100463.53;;;9.04;93.73
79415;BME280;68864;44.972;19.612;2023-11-22T05:49:36;100467.84;;;9.02;93.49
79415;BME280;68864;44.972;19.612;2023-11-22T05:52:04;100481.41;;;9.03;93.49
79415;BME280;68864;44.972;19.612;2023-11-22T05:54:31;100480.94;;;9.01;93.56
79415;BME280;68864;44.972;19.612;2023-11-22T05:56:57;100496.19;;;9.07;93.17
79415;BME280;68864;44.972;19.612;2023-11-22T05:59:24;100500.25;;;9.10;93.36
79415;BME280;68864;44.972;19.612;2023-11-22T06:01:51;100491.19;;;9.13;93.40
79415;BME280;68864;44.972;19.612;2023-11-22T06:04:18;100510.84;;;9.20;93.37
79415;BME280;68864;44.972;19.612;2023-11-22T06:06:46;100509.47;;;9.14;93.65
79415;BME280;68864;44.972;19.612;2023-11-22T06:09:13;100512.59;;;9.12;93.73
79415;BME280;68864;44.972;19.612;2023-11-22T06:11:40;100508.59;;;9.10;93.89
79415;BME280;68864;44.972;19.612;2023-11-22T06:14:07;100509.75;;;9.09;92.88
79415;BME280;68864;44.972;19.612;2023-11-22T06:16:34;100516.47;;;9.08;92.07
79415;BME280;68864;44.972;19.612;2023-11-22T06:19:01;100534.78;;;9.09;92.34
79415;BME280;68864;44.972;19.612;2023-11-22T06:21:28;100528.19;;;9.01;92.26
79415;BME280;68864;44.972;19.612;2023-11-22T06:23:56;100539.06;;;9.06;92.36
79415;BME280;68864;44.972;19.612;2023-11-22T06:26:23;100532.59;;;9.02;92.24
79415;BME280;68864;44.972;19.612;2023-11-22T06:28:50;100545.22;;;9.00;92.01
79415;BME280;68864;44.972;19.612;2023-11-22T06:31:17;100545.38;;;8.91;92.11
79415;BME280;68864;44.972;19.612;2023-11-22T06:33:44;100550.22;;;8.94;92.19
79415;BME280;68864;44.972;19.612;2023-11-22T06:36:11;100557.28;;;8.92;91.87
79415;BME280;68864;44.972;19.612;2023-11-22T06:38:39;100560.78;;;8.89;92.48
79415;BME280;68864;44.972;19.612;2023-11-22T06:41:07;100563.44;;;8.85;92.30
79415;BME280;68864;44.972;19.612;2023-11-22T06:43:34;100568.56;;;8.83;92.32
79415;BME280;68864;44.972;19.612;2023-11-22T06:46:01;100572.16;;;8.84;92.05
79415;BME280;68864;44.972;19.612;2023-11-22T06:48:31;100576.53;;;8.85;91.92
79415;BME280;68864;44.972;19.612;2023-11-22T06:50:58;100584.81;;;8.69;92.01
79415;BME280;68864;44.972;19.612;2023-11-22T06:53:24;100591.88;;;8.66;92.75
79415;BME280;68864;44.972;19.612;2023-11-22T06:55:51;100594.53;;;8.75;92.69
79415;BME280;68864;44.972;19.612;2023-11-22T06:58:19;100593.81;;;8.78;92.63
79415;BME280;68864;44.972;19.612;2023-11-22T07:00:46;100598.56;;;8.77;92.49
79415;BME280;68864;44.972;19.612;2023-11-22T07:03:13;100612.44;;;8.77;93.28
79415;BME280;68864;44.972;19.612;2023-11-22T07:05:41;100613.72;;;8.80;92.74
79415;BME280;68864;44.972;19.612;2023-11-22T07:08:08;100618.22;;;8.85;91.68
79415;BME280;68864;44.972;19.612;2023-11-22T07:10:36;100627.38;;;8.85;92.55
79415;BME280;68864;44.972;19.612;2023-11-22T07:13:03;100605.28;;;8.76;92.90
79415;BME280;68864;44.972;19.612;2023-11-22T07:15:31;100620.66;;;8.86;92.62
79415;BME280;68864;44.972;19.612;2023-11-22T07:17:58;100620.53;;;8.95;92.58
79415;BME280;68864;44.972;19.612;2023-11-22T07:20:25;100618.44;;;8.92;92.75
79415;BME280;68864;44.972;19.612;2023-11-22T07:22:52;100626.56;;;8.97;92.85
79415;BME280;68864;44.972;19.612;2023-11-22T07:25:22;100626.66;;;9.00;91.94
79415;BME280;68864;44.972;19.612;2023-11-22T07:27:50;100631.19;;;8.93;91.99
79415;BME280;68864;44.972;19.612;2023-11-22T07:30:19;100633.38;;;8.99;91.97
79415;BME280;68864;44.972;19.612;2023-11-22T07:32:49;100639.50;;;9.05;91.88
79415;BME280;68864;44.972;19.612;2023-11-22T07:35:17;100627.56;;;9.04;91.43
79415;BME280;68864;44.972;19.612;2023-11-22T07:37:45;100630.81;;;9.06;91.74
79415;BME280;68864;44.972;19.612;2023-11-22T07:40:13;100644.81;;;9.10;91.20
79415;BME280;68864;44.972;19.612;2023-11-22T07:42:40;100639.06;;;9.03;91.95
79415;BME280;68864;44.972;19.612;2023-11-22T07:45:09;100651.19;;;9.10;91.78
79415;BME280;68864;44.972;19.612;2023-11-22T07:47:37;100656.38;;;9.12;91.35
79415;BME280;68864;44.972;19.612;2023-11-22T07:50:09;100658.72;;;9.10;92.48
79415;BME280;68864;44.972;19.612;2023-11-22T07:52:36;100658.47;;;9.15;91.10
79415;BME280;68864;44.972;19.612;2023-11-22T07:55:05;100649.19;;;9.11;92.16
79415;BME280;68864;44.972;19.612;2023-11-22T07:57:33;100650.47;;;9.13;90.93
79415;BME280;68864;44.972;19.612;2023-11-22T08:00:00;100659.38;;;9.19;91.19
79415;BME280;68864;44.972;19.612;2023-11-22T08:02:32;100655.19;;;9.25;91.43
79415;BME280;68864;44.972;19.612;2023-11-22T08:04:59;100650.69;;;9.21;90.68
79415;BME280;68864;44.972;19.612;2023-11-22T08:07:28;100662.50;;;9.30;90.81
79415;BME280;68864;44.972;19.612;2023-11-22T08:09:55;100667.44;;;9.36;91.29
79415;BME280;68864;44.972;19.612;2023-11-22T08:12:22;100669.16;;;9.41;90.84
79415;BME280;68864;44.972;19.612;2023-11-22T08:14:49;100678.88;;;9.47;90.85
79415;BME280;68864;44.972;19.612;2023-11-22T08:17:16;100680.50;;;9.48;90.35
79415;BME280;68864;44.972;19.612;2023-11-22T08:19:44;100679.34;;;9.49;90.18
79415;BME280;68864;44.972;19.612;2023-11-22T08:22:13;100683.63;;;9.46;89.80
79415;BME280;68864;44.972;19.612;2023-11-22T08:24:41;100696.72;;;9.46;92.05
79415;BME280;68864;44.972;19.612;2023-11-22T08:27:09;100688.03;;;9.47;91.98
79415;BME280;68864;44.972;19.612;2023-11-22T08:29:37;100689.19;;;9.46;92.48
79415;BME280;68864;44.972;19.612;2023-11-22T08:32:05;100690.00;;;9.47;92.73
79415;BME280;68864;44.972;19.612;2023-11-22T08:34:32;100690.34;;;9.45;91.95
79415;BME280;68864;44.972;19.612;2023-11-22T08:36:59;100679.81;;;9.39;92.03
79415;BME280;68864;44.972;19.612;2023-11-22T08:39:26;100700.31;;;9.46;91.75
79415;BME280;68864;44.972;19.612;2023-11-22T08:41:56;100717.00;;;9.46;91.15
79415;BME280;68864;44.972;19.612;2023-11-22T08:44:23;100711.91;;;9.48;91.12
79415;BME280;68864;44.972;19.612;2023-11-22T08:46:50;100708.44;;;9.39;90.97
79415;BME280;68864;44.972;19.612;2023-11-22T08:49:18;100721.41;;;9.47;90.82
79415;BME280;68864;44.972;19.612;2023-11-22T08:51:45;100719.44;;;9.48;90.77
79415;BME280;68864;44.972;19.612;2023-11-22T08:54:11;100730.22;;;9.49;91.38
79415;BME280;68864;44.972;19.612;2023-11-22T08:56:38;100733.22;;;9.56;91.07
79415;BME280;68864;44.972;19.612;2023-11-22T08:59:07;100737.38;;;9.63;91.09
79415;BME280;68864;44.972;19.612;2023-11-22T09:01:34;100730.44;;;9.56;90.87
79415;BME280;68864;44.972;19.612;2023-11-22T09:04:01;100734.69;;;9.66;90.51
79415;BME280;68864;44.972;19.612;2023-11-22T09:06:28;100745.13;;;9.69;89.71
79415;BME280;68864;44.972;19.612;2023-11-22T09:08:55;100738.06;;;9.60;90.43
79415;BME280;68864;44.972;19.612;2023-11-22T09:11:22;100750.22;;;9.67;89.96
79415;BME280;68864;44.972;19.612;2023-11-22T09:13:50;100752.91;;;9.64;90.34
79415;BME280;68864;44.972;19.612;2023-11-22T09:16:18;100757.28;;;9.65;90.17
79415;BME280;68864;44.972;19.612;2023-11-22T09:18:47;100754.41;;;9.61;90.07
79415;BME280;68864;44.972;19.612;2023-11-22T09:21:14;100764.03;;;9.64;89.82
79415;BME280;68864;44.972;19.612;2023-11-22T09:23:42;100759.16;;;9.61;90.16
79415;BME280;68864;44.972;19.612;2023-11-22T09:26:09;100751.34;;;9.50;90.12
79415;BME280;68864;44.972;19.612;2023-11-22T09:28:36;100763.47;;;9.58;89.74
79415;BME280;68864;44.972;19.612;2023-11-22T09:31:03;100763.59;;;9.62;89.11
79415;BME280;68864;44.972;19.612;2023-11-22T09:33:33;100768.69;;;9.60;89.33
79415;BME280;68864;44.972;19.612;2023-11-22T09:36:00;100777.84;;;9.60;89.51
79415;BME280;68864;44.972;19.612;2023-11-22T09:38:29;100776.13;;;9.55;89.61
79415;BME280;68864;44.972;19.612;2023-11-22T09:40:56;100770.91;;;9.54;90.32
79415;BME280;68864;44.972;19.612;2023-11-22T09:43:25;100780.97;;;9.58;90.22
79415;BME280;68864;44.972;19.612;2023-11-22T09:45:54;100779.25;;;9.54;89.31
79415;BME280;68864;44.972;19.612;2023-11-22T09:48:23;100786.31;;;9.64;89.54
79415;BME280;68864;44.972;19.612;2023-11-22T09:50:57;100785.38;;;9.60;90.10
79415;BME280;68864;44.972;19.612;2023-11-22T09:53:31;100775.31;;;9.55;89.99
79415;BME280;68864;44.972;19.612;2023-11-22T09:55:59;100782.59;;;9.60;90.12
79415;BME280;68864;44.972;19.612;2023-11-22T09:58:29;100788.06;;;9.56;90.47
79415;BME280;68864;44.972;19.612;2023-11-22T10:00:56;100786.53;;;9.58;90.35
79415;BME280;68864;44.972;19.612;2023-11-22T10:03:25;100769.88;;;9.46;89.86
79415;BME280;68864;44.972;19.612;2023-11-22T10:05:55;100780.06;;;9.54;89.99
79415;BME280;68864;44.972;19.612;2023-11-22T10:08:23;100782.25;;;9.61;90.39
79415;BME280;68864;44.972;19.612;2023-11-22T10:10:50;100785.84;;;9.62;89.92
79415;BME280;68864;44.972;19.612;2023-11-22T10:13:19;100783.75;;;9.58;89.47
79415;BME280;68864;44.972;19.612;2023-11-22T10:15:47;100777.53;;;9.49;89.76
79415;BME280;68864;44.972;19.612;2023-11-22T10:18:14;100790.38;;;9.54;90.07
79415;BME280;68864;44.972;19.612;2023-11-22T10:20:44;100791.53;;;9.53;90.69
79415;BME280;68864;44.972;19.612;2023-11-22T10:23:14;100794.06;;;9.58;89.73
79415;BME280;68864;44.972;19.612;2023-11-22T10:25:45;100803.22;;;9.58;89.68
79415;BME280;68864;44.972;19.612;2023-11-22T10:28:13;100804.41;;;9.45;90.60
79415;BME280;68864;44.972;19.612;2023-11-22T10:30:40;100813.69;;;9.49;89.94
79415;BME280;68864;44.972;19.612;2023-11-22T10:33:08;100814.41;;;9.34;90.50
79415;BME280;68864;44.972;19.612;2023-11-22T10:35:37;100824.59;;;9.42;90.15
79415;BME280;68864;44.972;19.612;2023-11-22T10:38:07;100827.25;;;9.39;90.49
79415;BME280;68864;44.972;19.612;2023-11-22T10:40:36;100821.94;;;9.34;90.40
79415;BME280;68864;44.972;19.612;2023-11-22T10:43:04;100816.97;;;9.27;90.97
79415;BME280;68864;44.972;19.612;2023-11-22T10:45:32;100824.47;;;9.39;90.46
79415;BME280;68864;44.972;19.612;2023-11-22T10:48:00;100832.13;;;9.42;90.10
79415;BME280;68864;44.972;19.612;2023-11-22T10:50:27;100838.38;;;9.39;90.28
79415;BME280;68864;44.972;19.612;2023-11-22T10:52:56;100829.69;;;9.40;90.12
79415;BME280;68864;44.972;19.612;2023-11-22T10:55:26;100837.81;;;9.33;90.19
79415;BME280;68864;44.972;19.612;2023-11-22T10:57:56;100856.47;;;9.33;90.71
79415;BME280;68864;44.972;19.612;2023-11-22T11:00:27;100845.94;;;9.26;90.35
79415;BME280;68864;44.972;19.612;2023-11-22T11:02:59;100863.09;;;9.28;90.66
79415;BME280;68864;44.972;19.612;2023-11-22T11:05:30;100863.44;;;9.27;90.65
79415;BME280;68864;44.972;19.612;2023-11-22T11:08:00;100856.38;;;9.29;91.00
79415;BME280;68864;44.972;19.612;2023-11-22T11:10:32;100863.19;;;9.32;90.77
79415;BME280;68864;44.972;19.612;2023-11-22T11:13:01;100872.81;;;9.34;90.43
79415;BME280;68864;44.972;19.612;2023-11-22T11:15:28;100871.31;;;9.37;90.75
79415;BME280;68864;44.972;19.612;2023-11-22T11:17:55;100875.59;;;9.34;90.43
79415;BME280;68864;44.972;19.612;2023-11-22T11:20:23;100875.13;;;9.32;90.63
79415;BME280;68864;44.972;19.612;2023-11-22T11:22:50;100876.50;;;9.38;90.86
79415;BME280;68864;44.972;19.612;2023-11-22T11:25:18;100882.06;;;9.38;90.05
79415;BME280;68864;44.972;19.612;2023-11-22T11:27:51;100882.44;;;9.37;89.86
79415;BME280;68864;44.972;19.612;2023-11-22T11:30:45;100881.03;;;9.31;89.74
79415;BME280;68864;44.972;19.612;2023-11-22T11:33:15;100891.81;;;9.32;90.43
79415;BME280;68864;44.972;19.612;2023-11-22T11:35:43;100896.34;;;9.37;90.19
79415;BME280;68864;44.972;19.612;2023-11-22T11:38:13;100898.91;;;9.42;89.96
79415;BME280;68864;44.972;19.612;2023-11-22T11:40:41;100895.53;;;9.48;89.96
79415;BME280;68864;44.972;19.612;2023-11-22T11:43:08;100876.06;;;9.36;90.94
79415;BME280;68864;44.972;19.612;2023-11-22T11:45:37;100898.44;;;9.52;90.57
79415;BME280;68864;44.972;19.612;2023-11-22T11:48:06;100900.88;;;9.53;90.06
79415;BME280;68864;44.972;19.612;2023-11-22T11:50:33;100901.56;;;9.50;90.69
79415;BME280;68864;44.972;19.612;2023-11-22T11:53:00;100895.06;;;9.46;90.25
79415;BME280;68864;44.972;19.612;2023-11-22T11:55:28;100898.66;;;9.47;90.17
79415;BME280;68864;44.972;19.612;2023-11-22T11:57:54;100902.94;;;9.44;90.31
79415;BME280;68864;44.972;19.612;2023-11-22T12:00:22;100892.75;;;9.36;90.71
79415;BME280;68864;44.972;19.612;2023-11-22T12:02:50;100906.78;;;9.40;90.70
79415;BME280;68864;44.972;19.612;2023-11-22T12:05:20;100909.31;;;9.45;90.87
79415;BME280;68864;44.972;19.612;2023-11-22T12:07:46;100915.84;;;9.49;90.58
79415;BME280;68864;44.972;19.612;2023-11-22T12:10:14;100926.97;;;9.37;91.12
79415;BME280;68864;44.972;19.612;2023-11-22T12:12:42;100932.88;;;9.35;91.36
79415;BME280;68864;44.972;19.612;2023-11-22T12:15:10;100919.19;;;9.42;90.90
79415;BME280;68864;44.972;19.612;2023-11-22T12:17:36;100930.09;;;9.47;90.89
79415;BME280;68864;44.972;19.612;2023-11-22T12:20:14;100936.69;;;9.43;90.67
79415;BME280;68864;44.972;19.612;2023-11-22T12:22:44;100937.38;;;9.40;91.41
79415;BME280;68864;44.972;19.612;2023-11-22T12:25:13;100938.78;;;9.46;91.05
79415;BME280;68864;44.972;19.612;2023-11-22T12:27:40;100942.03;;;9.48;90.65
79415;BME280;68864;44.972;19.612;2023-11-22T12:30:08;100940.41;;;9.47;90.54
79415;BME280;68864;44.972;19.612;2023-11-22T12:32:38;100950.84;;;9.50;90.27
79415;BME280;68864;44.972;19.612;2023-11-22T12:35:07;100959.31;;;9.53;90.75
79415;BME280;68864;44.972;19.612;2023-11-22T12:37:34;100957.91;;;9.47;90.98
79415;BME280;68864;44.972;19.612;2023-11-22T12:40:09;100969.38;;;9.46;91.68
79415;BME280;68864;44.972;19.612;2023-11-22T12:42:52;100972.38;;;9.41;91.52
79415;BME280;68864;44.972;19.612;2023-11-22T12:45:20;100972.06;;;9.42;91.43
79415;BME280;68864;44.972;19.612;2023-11-22T12:47:49;100964.16;;;9.44;91.34
79415;BME280;68864;44.972;19.612;2023-11-22T12:50:29;100964.16;;;9.44;91.14
79415;BME280;68864;44.972;19.612;2023-11-22T12:52:57;100967.88;;;9.48;90.65